createdAt,value
2022-08-28T00:01:00.074Z,27.80
2022-08-28T00:03:27.163Z,27.80
2022-08-28T00:05:57.564Z,27.80
2022-08-28T00:08:27.277Z,27.80
2022-08-28T00:10:54.489Z,27.70
2022-08-28T00:13:25.432Z,27.70
2022-08-28T00:15:56.361Z,27.70
2022-08-28T00:18:23.916Z,27.70
2022-08-28T00:20:51.625Z,27.60
2022-08-28T00:23:19.297Z,27.60
2022-08-28T00:25:46.404Z,27.60
2022-08-28T00:28:24.140Z,27.60
2022-08-28T00:30:54.906Z,27.60
2022-08-28T00:33:35.208Z,27.60
2022-08-28T00:36:03.306Z,27.60
2022-08-28T00:38:30.916Z,27.50
2022-08-28T00:41:01.817Z,27.50
2022-08-28T00:43:36.652Z,27.50
2022-08-28T00:46:06.949Z,27.50
2022-08-28T00:48:34.192Z,27.50
2022-08-28T00:51:24.297Z,27.40
2022-08-28T00:53:56.778Z,27.40
2022-08-28T00:56:27.388Z,27.40
2022-08-28T00:58:56.823Z,27.40
2022-08-28T01:01:24.287Z,27.40
2022-08-28T01:03:51.424Z,27.40
2022-08-28T01:06:20.646Z,27.40
2022-08-28T01:08:50.532Z,27.40
2022-08-28T01:11:19.585Z,27.40
2022-08-28T01:13:48.560Z,27.40
2022-08-28T01:16:18.144Z,27.30
2022-08-28T01:18:46.781Z,27.30
2022-08-28T01:21:36.769Z,27.30
2022-08-28T01:24:14.973Z,27.30
2022-08-28T01:26:42.945Z,27.30
2022-08-28T01:29:11.807Z,27.30
2022-08-28T01:31:39.811Z,27.20
2022-08-28T01:34:09.400Z,27.20
2022-08-28T01:36:36.827Z,27.30
2022-08-28T01:39:09.147Z,27.30
2022-08-28T01:41:45.902Z,27.30
2022-08-28T01:44:15.335Z,27.30
2022-08-28T01:46:46.510Z,27.20
2022-08-28T01:49:14.003Z,27.20
2022-08-28T01:51:42.609Z,27.20
2022-08-28T01:54:11.880Z,27.30
2022-08-28T01:56:40.544Z,27.20
2022-08-28T01:59:12.173Z,27.20
2022-08-28T02:01:40.324Z,27.20
2022-08-28T02:04:07.479Z,27.20
2022-08-28T02:06:37.966Z,27.10
2022-08-28T02:09:14.660Z,27.10
2022-08-28T02:11:45.355Z,27.10
2022-08-28T02:14:14.360Z,27.10
2022-08-28T02:16:41.455Z,27.00
2022-08-28T02:19:08.530Z,27.00
2022-08-28T02:21:35.614Z,27.00
2022-08-28T02:24:03.230Z,27.00
2022-08-28T02:26:31.704Z,27.00
2022-08-28T02:28:59.334Z,27.00
2022-08-28T02:31:27.370Z,27.00
2022-08-28T02:33:55.586Z,27.00
2022-08-28T02:36:23.634Z,27.00
2022-08-28T02:38:57.597Z,26.90
2022-08-28T02:41:25.606Z,26.90
2022-08-28T02:43:53.301Z,26.90
2022-08-28T02:46:21.611Z,26.90
2022-08-28T02:48:49.058Z,26.90
2022-08-28T02:51:16.207Z,26.90
2022-08-28T02:53:43.415Z,26.90
2022-08-28T02:56:10.906Z,26.80
2022-08-28T02:58:39.285Z,26.80
2022-08-28T03:01:10.844Z,26.80
2022-08-28T03:03:40.922Z,26.80
2022-08-28T03:06:09.880Z,26.80
2022-08-28T03:08:37.505Z,26.80
2022-08-28T03:11:04.639Z,26.80
2022-08-28T03:13:31.737Z,26.70
2022-08-28T03:15:59.501Z,26.70
2022-08-28T03:18:28.395Z,26.70
2022-08-28T03:20:58.207Z,26.70
2022-08-28T03:23:28.227Z,26.70
2022-08-28T03:26:01.737Z,26.70
2022-08-28T03:28:35.352Z,26.70
2022-08-28T03:31:02.623Z,26.60
2022-08-28T03:33:29.809Z,26.60
2022-08-28T03:35:57.442Z,26.60
2022-08-28T03:38:25.300Z,26.60
2022-08-28T03:40:53.487Z,26.60
2022-08-28T03:43:23.226Z,26.60
2022-08-28T03:45:53.135Z,26.60
2022-08-28T03:48:20.359Z,26.60
2022-08-28T03:50:47.977Z,26.60
2022-08-28T03:53:16.115Z,26.50
2022-08-28T03:55:43.397Z,26.50
2022-08-28T03:58:10.548Z,26.50
2022-08-28T04:00:46.858Z,26.50
2022-08-28T04:03:14.317Z,26.50
2022-08-28T04:05:42.832Z,26.50
2022-08-28T04:08:12.706Z,26.50
2022-08-28T04:10:39.752Z,26.40
2022-08-28T04:13:06.775Z,26.40
2022-08-28T04:15:34.037Z,26.40
2022-08-28T04:18:01.137Z,26.40
2022-08-28T04:20:28.848Z,26.40
2022-08-28T04:22:55.976Z,26.40
2022-08-28T04:25:23.699Z,26.30
2022-08-28T04:27:52.089Z,26.30
2022-08-28T04:30:19.242Z,26.30
2022-08-28T04:32:46.282Z,26.20
2022-08-28T04:35:13.928Z,26.20
2022-08-28T04:37:43.644Z,26.20
2022-08-28T04:40:12.937Z,26.20
2022-08-28T04:42:40.250Z,26.20
2022-08-28T04:45:08.076Z,26.20
2022-08-28T04:47:36.938Z,26.20
2022-08-28T04:50:06.412Z,26.20
2022-08-28T04:52:33.885Z,26.20
2022-08-28T04:55:01.625Z,26.10
2022-08-28T04:57:35.775Z,26.10
2022-08-28T05:00:06.704Z,26.10
2022-08-28T05:02:33.965Z,26.10
2022-08-28T05:05:01.066Z,26.10
2022-08-28T05:07:28.491Z,26.10
2022-08-28T05:09:55.565Z,26.10
2022-08-28T05:12:25.748Z,26.10
2022-08-28T05:14:52.774Z,26.10
2022-08-28T05:17:19.794Z,26.00
2022-08-28T05:19:48.218Z,26.00
2022-08-28T05:22:15.424Z,26.00
2022-08-28T05:24:42.460Z,26.00
2022-08-28T05:27:09.631Z,26.10
2022-08-28T05:29:36.753Z,26.00
2022-08-28T05:32:04.672Z,26.00
2022-08-28T05:34:31.727Z,26.00
2022-08-28T05:36:58.771Z,26.00
2022-08-28T05:39:25.856Z,26.00
2022-08-28T05:41:53.216Z,26.00
2022-08-28T05:44:20.959Z,25.90
2022-08-28T05:46:48.599Z,25.90
2022-08-28T05:49:19.733Z,25.90
2022-08-28T05:51:47.797Z,25.90
2022-08-28T05:54:15.953Z,25.90
2022-08-28T05:56:45.087Z,25.90
2022-08-28T05:59:13.750Z,25.90
2022-08-28T06:01:44.384Z,25.90
2022-08-28T06:04:21.137Z,26.00
2022-08-28T06:06:49.483Z,25.90
2022-08-28T06:09:28.161Z,26.00
2022-08-28T06:11:59.029Z,26.00
2022-08-28T06:14:26.872Z,26.00
2022-08-28T06:16:55.880Z,26.10
2022-08-28T06:19:25.065Z,26.10
2022-08-28T06:21:59.244Z,26.10
2022-08-28T06:24:28.008Z,26.10
2022-08-28T06:26:57.465Z,26.10
2022-08-28T06:29:27.464Z,26.20
2022-08-28T06:31:57.154Z,26.20
2022-08-28T06:34:24.837Z,26.20
2022-08-28T06:36:53.957Z,26.20
2022-08-28T06:39:22.432Z,26.20
2022-08-28T06:41:49.554Z,26.20
2022-08-28T06:44:20.027Z,26.20
2022-08-28T06:46:49.269Z,26.20
2022-08-28T06:49:16.465Z,26.20
2022-08-28T06:51:43.802Z,26.30
2022-08-28T06:54:10.927Z,26.30
2022-08-28T06:56:38.529Z,26.30
2022-08-28T06:59:05.659Z,26.30
2022-08-28T07:01:36.695Z,26.30
2022-08-28T07:04:08.737Z,26.20
2022-08-28T07:06:39.059Z,26.20
2022-08-28T07:09:08.575Z,26.20
2022-08-28T07:11:36.743Z,26.30
2022-08-28T07:14:04.408Z,26.30
2022-08-28T07:16:34.849Z,26.30
2022-08-28T07:19:05.165Z,26.30
2022-08-28T07:21:39.100Z,26.30
2022-08-28T07:24:07.766Z,26.40
2022-08-28T07:26:36.263Z,26.50
2022-08-28T07:29:10.756Z,26.50
2022-08-28T07:31:44.735Z,26.50
2022-08-28T07:34:13.605Z,26.50
2022-08-28T07:36:41.572Z,26.50
2022-08-28T07:39:09.834Z,26.50
2022-08-28T07:41:39.400Z,26.50
2022-08-28T07:44:26.178Z,26.50
2022-08-28T07:46:58.284Z,26.50
2022-08-28T07:49:25.943Z,26.50
2022-08-28T07:51:56.177Z,26.60
2022-08-28T07:54:24.067Z,26.60
2022-08-28T07:56:52.676Z,26.60
2022-08-28T07:59:20.278Z,26.60
2022-08-28T08:01:52.240Z,26.60
2022-08-28T08:04:21.006Z,26.60
2022-08-28T08:06:48.672Z,26.70
2022-08-28T08:09:19.156Z,26.70
2022-08-28T08:11:47.759Z,26.70
2022-08-28T08:14:19.947Z,26.70
2022-08-28T08:16:48.098Z,26.70
2022-08-28T08:19:16.224Z,26.70
2022-08-28T08:21:45.180Z,26.70
2022-08-28T08:24:20.764Z,26.70
2022-08-28T08:26:59.461Z,26.80
2022-08-28T08:29:35.409Z,26.70
2022-08-28T08:32:06.496Z,26.80
2022-08-28T08:34:36.722Z,26.80
2022-08-28T08:37:07.328Z,26.90
2022-08-28T08:39:37.600Z,26.90
2022-08-28T08:42:10.493Z,26.90
2022-08-28T08:44:42.331Z,26.90
2022-08-28T08:47:15.157Z,26.90
2022-08-28T08:49:57.877Z,27.00
2022-08-28T08:52:31.023Z,27.00
2022-08-28T08:55:19.691Z,27.00
2022-08-28T08:57:51.297Z,27.10
2022-08-28T09:00:19.693Z,27.10
2022-08-28T09:03:02.676Z,27.10
2022-08-28T09:06:07.680Z,27.10
2022-08-28T09:08:42.800Z,27.10
2022-08-28T09:11:28.700Z,27.20
2022-08-28T09:14:00.320Z,27.20
2022-08-28T09:16:36.382Z,27.20
2022-08-28T09:19:07.129Z,27.20
2022-08-28T09:21:39.279Z,27.20
2022-08-28T09:24:11.951Z,27.20
2022-08-28T09:26:40.228Z,27.20
2022-08-28T09:29:16.631Z,27.20
2022-08-28T09:31:44.470Z,27.30
2022-08-28T09:34:17.540Z,27.30
2022-08-28T09:36:44.663Z,27.30
2022-08-28T09:39:16.526Z,27.40
2022-08-28T09:42:19.225Z,27.40
2022-08-28T09:45:09.491Z,27.50
2022-08-28T09:47:52.302Z,27.50
2022-08-28T09:50:39.490Z,27.50
2022-08-28T09:53:09.635Z,27.50
2022-08-28T09:55:41.823Z,27.50
2022-08-28T09:58:09.701Z,27.60
2022-08-28T10:00:40.952Z,27.60
2022-08-28T10:03:15.473Z,27.60
2022-08-28T10:06:06.612Z,27.60
2022-08-28T10:09:03.919Z,27.60
2022-08-28T10:11:44.298Z,27.60
2022-08-28T10:14:47.225Z,27.70
2022-08-28T10:17:32.711Z,27.70
2022-08-28T10:20:44.574Z,27.70
2022-08-28T10:23:29.231Z,27.70
2022-08-28T10:26:25.505Z,27.80
2022-08-28T10:28:58.399Z,27.80
2022-08-28T10:31:52.349Z,27.80
2022-08-28T10:34:35.955Z,27.90
2022-08-28T10:37:26.400Z,27.90
2022-08-28T10:39:59.375Z,27.90
2022-08-28T10:42:37.426Z,28.00
2022-08-28T10:45:24.778Z,27.90
2022-08-28T10:47:59.018Z,28.00
2022-08-28T10:50:34.016Z,28.00
2022-08-28T10:53:06.413Z,28.00
2022-08-28T10:55:44.990Z,28.00
2022-08-28T10:58:24.312Z,28.10
2022-08-28T11:00:55.744Z,28.10
2022-08-28T11:03:35.036Z,28.20
2022-08-28T11:06:11.509Z,28.20
2022-08-28T11:08:39.907Z,28.20
2022-08-28T11:11:13.510Z,28.20
2022-08-28T11:13:40.442Z,28.20
2022-08-28T11:16:17.455Z,28.20
2022-08-28T11:19:03.045Z,28.20
2022-08-28T11:21:42.500Z,28.30
2022-08-28T11:24:24.847Z,28.30
2022-08-28T11:27:17.835Z,28.30
2022-08-28T11:29:58.246Z,28.30
2022-08-28T11:32:33.984Z,28.40
2022-08-28T11:35:30.033Z,28.40
2022-08-28T11:37:58.306Z,28.50
2022-08-28T11:40:33.817Z,28.50
2022-08-28T11:43:14.305Z,28.50
2022-08-28T11:45:46.603Z,28.60
2022-08-28T11:48:26.168Z,28.60
2022-08-28T11:51:06.311Z,28.60
2022-08-28T11:53:58.124Z,28.60
2022-08-28T11:56:40.412Z,28.60
2022-08-28T11:59:35.281Z,28.70
2022-08-28T12:02:33.767Z,28.70
2022-08-28T12:05:02.152Z,28.70
2022-08-28T12:07:43.879Z,28.70
2022-08-28T12:10:34.159Z,28.80
2022-08-28T12:13:07.525Z,28.90
2022-08-28T12:15:34.643Z,28.90
2022-08-28T12:18:40.451Z,28.90
2022-08-28T12:21:16.217Z,28.90
2022-08-28T12:23:58.925Z,29.00
2022-08-28T12:26:28.765Z,29.00
2022-08-28T12:29:03.430Z,29.00
2022-08-28T12:31:56.387Z,29.00
2022-08-28T12:34:39.373Z,29.10
2022-08-28T12:37:24.101Z,29.10
2022-08-28T12:39:52.763Z,29.10
2022-08-28T12:42:23.370Z,29.20
2022-08-28T12:44:50.838Z,29.20
2022-08-28T12:47:22.792Z,29.30
2022-08-28T12:49:49.838Z,29.30
2022-08-28T12:52:20.428Z,29.40
2022-08-28T12:54:51.403Z,29.40
2022-08-28T12:57:22.152Z,29.40
2022-08-28T12:59:51.516Z,29.50
2022-08-28T13:02:18.629Z,29.50
2022-08-28T13:04:53.632Z,29.50
2022-08-28T13:07:40.811Z,29.60
2022-08-28T13:10:30.186Z,29.60
2022-08-28T13:13:05.790Z,29.60
2022-08-28T13:16:09.644Z,29.60
2022-08-28T13:18:45.598Z,29.60
2022-08-28T13:21:32.584Z,29.70
2022-08-28T13:24:23.700Z,29.80
2022-08-28T13:27:05.158Z,29.80
2022-08-28T13:29:33.119Z,29.90
2022-08-28T13:32:07.198Z,30.00
2022-08-28T13:34:36.982Z,30.00
2022-08-28T13:37:20.026Z,30.10
2022-08-28T13:39:47.739Z,30.10
2022-08-28T13:42:16.957Z,30.10
2022-08-28T13:44:56.178Z,30.20
2022-08-28T13:47:23.319Z,30.20
2022-08-28T13:49:50.368Z,30.30
2022-08-28T13:52:17.873Z,30.30
2022-08-28T13:54:45.743Z,30.30
2022-08-28T13:57:13.735Z,30.40
2022-08-28T13:59:41.427Z,30.40
2022-08-28T14:02:30.859Z,30.40
2022-08-28T14:04:58.198Z,30.40
2022-08-28T14:07:25.515Z,30.50
2022-08-28T14:09:56.266Z,30.50
2022-08-28T14:12:31.371Z,30.50
2022-08-28T14:15:01.691Z,30.60
2022-08-28T14:17:29.028Z,30.70
2022-08-28T14:19:56.215Z,30.80
2022-08-28T14:22:23.537Z,30.90
2022-08-28T14:24:51.055Z,31.00
2022-08-28T14:27:18.394Z,31.10
2022-08-28T14:29:45.456Z,31.20
2022-08-28T14:32:12.517Z,31.30
2022-08-28T14:34:39.661Z,31.40
2022-08-28T14:37:06.811Z,31.50
2022-08-28T14:39:33.907Z,31.70
2022-08-28T14:42:01.909Z,31.80
2022-08-28T14:44:28.981Z,31.90
2022-08-28T14:46:57.308Z,32.00
2022-08-28T14:49:25.539Z,32.20
2022-08-28T14:51:54.138Z,32.30
2022-08-28T14:54:24.592Z,32.40
2022-08-28T14:56:52.827Z,32.60
2022-08-28T14:59:24.392Z,32.70
2022-08-28T15:01:55.239Z,32.90
2022-08-28T15:04:23.755Z,33.00
2022-08-28T15:06:55.604Z,33.20
2022-08-28T15:09:22.931Z,33.40
2022-08-28T15:11:49.980Z,33.60
2022-08-28T15:14:17.114Z,34.10
2022-08-28T15:16:46.747Z,34.90
2022-08-28T15:19:17.831Z,35.50
2022-08-28T15:21:51.424Z,36.00
2022-08-28T15:24:21.531Z,36.60
2022-08-28T15:26:49.099Z,37.00
2022-08-28T15:29:16.581Z,37.40
2022-08-28T15:31:49.275Z,37.80
2022-08-28T15:34:23.055Z,38.20
2022-08-28T15:36:54.824Z,38.50
2022-08-28T15:39:46.070Z,38.80
2022-08-28T15:42:14.226Z,39.00
2022-08-28T15:44:41.422Z,39.20
2022-08-28T15:47:10.058Z,39.20
2022-08-28T15:49:48.806Z,39.10
2022-08-28T15:52:19.974Z,38.80
2022-08-28T15:54:47.738Z,38.40
2022-08-28T15:57:15.631Z,37.80
2022-08-28T15:59:48.903Z,37.40
2022-08-28T16:02:22.569Z,37.00
2022-08-28T16:04:50.139Z,36.50
2022-08-28T16:07:18.203Z,36.20
2022-08-28T16:09:46.390Z,36.00
2022-08-28T16:12:13.588Z,35.90
2022-08-28T16:14:41.210Z,36.00
2022-08-28T16:17:11.038Z,36.40
2022-08-28T16:19:42.162Z,36.70
2022-08-28T16:22:10.241Z,37.10
2022-08-28T16:24:37.791Z,37.60
2022-08-28T16:27:06.395Z,37.90
2022-08-28T16:29:37.064Z,38.20
2022-08-28T16:32:05.314Z,38.40
2022-08-28T16:34:33.906Z,38.50
2022-08-28T16:37:01.220Z,38.60
2022-08-28T16:39:28.639Z,38.50
2022-08-28T16:41:55.712Z,38.50
2022-08-28T16:44:26.149Z,38.40
2022-08-28T16:46:54.174Z,38.30
2022-08-28T16:49:21.721Z,38.00
2022-08-28T16:51:48.877Z,37.80
2022-08-28T16:54:18.264Z,37.60
2022-08-28T16:56:46.194Z,37.60
2022-08-28T16:59:16.612Z,37.60
2022-08-28T17:01:43.815Z,37.60
2022-08-28T17:04:12.359Z,37.40
2022-08-28T17:06:40.087Z,37.10
2022-08-28T17:09:07.261Z,36.80
2022-08-28T17:11:34.379Z,36.60
2022-08-28T17:14:02.061Z,36.30
2022-08-28T17:16:33.092Z,36.10
2022-08-28T17:19:03.311Z,35.90
2022-08-28T17:21:48.951Z,35.60
2022-08-28T17:24:15.986Z,35.50
2022-08-28T17:26:44.415Z,35.30
2022-08-28T17:29:11.679Z,35.00
2022-08-28T17:31:39.320Z,34.90
2022-08-28T17:34:07.431Z,34.70
2022-08-28T17:36:39.892Z,34.50
2022-08-28T17:39:11.729Z,34.30
2022-08-28T17:41:41.146Z,34.10
2022-08-28T17:44:11.196Z,34.00
2022-08-28T17:46:38.434Z,33.80
2022-08-28T17:49:07.485Z,33.70
2022-08-28T17:51:43.639Z,33.50
2022-08-28T17:54:17.741Z,33.50
2022-08-28T17:56:47.975Z,33.40
2022-08-28T17:59:15.725Z,33.30
2022-08-28T18:01:44.664Z,33.20
2022-08-28T18:04:12.899Z,33.10
2022-08-28T18:06:40.014Z,33.00
2022-08-28T18:09:08.888Z,32.90
2022-08-28T18:11:36.443Z,32.90
2022-08-28T18:14:04.402Z,32.80
2022-08-28T18:16:33.163Z,32.70
2022-08-28T18:19:02.168Z,32.60
2022-08-28T18:21:29.560Z,32.60
2022-08-28T18:23:57.317Z,32.60
2022-08-28T18:26:24.495Z,32.50
2022-08-28T18:28:52.231Z,32.50
2022-08-28T18:31:19.612Z,32.40
2022-08-28T18:33:46.866Z,32.30
2022-08-28T18:36:14.999Z,32.30
2022-08-28T18:38:43.228Z,32.30
2022-08-28T18:41:12.057Z,32.20
2022-08-28T18:43:39.374Z,32.10
2022-08-28T18:46:09.261Z,32.10
2022-08-28T18:48:37.470Z,32.10
2022-08-28T18:51:10.130Z,32.00
2022-08-28T18:53:37.891Z,31.90
2022-08-28T18:56:06.425Z,31.90
2022-08-28T18:58:35.683Z,31.80
2022-08-28T19:01:03.404Z,31.80
2022-08-28T19:03:31.296Z,31.70
2022-08-28T19:05:58.429Z,31.70
2022-08-28T19:08:26.319Z,31.70
2022-08-28T19:10:54.086Z,31.60
2022-08-28T19:13:21.268Z,31.60
2022-08-28T19:15:51.598Z,31.60
2022-08-28T19:18:19.335Z,31.50
2022-08-28T19:20:46.670Z,31.50
2022-08-28T19:23:17.407Z,31.50
2022-08-28T19:25:45.998Z,31.50
2022-08-28T19:28:13.892Z,31.40
2022-08-28T19:30:42.356Z,31.40
2022-08-28T19:33:12.501Z,31.30
2022-08-28T19:35:39.536Z,31.30
2022-08-28T19:38:06.615Z,31.20
2022-08-28T19:40:34.055Z,31.20
2022-08-28T19:43:01.446Z,31.20
2022-08-28T19:45:28.550Z,31.20
2022-08-28T19:47:55.803Z,31.10
2022-08-28T19:50:23.184Z,31.10
2022-08-28T19:52:50.288Z,31.10
2022-08-28T19:55:23.326Z,31.00
2022-08-28T19:57:50.515Z,30.90
2022-08-28T20:00:19.846Z,30.90
2022-08-28T20:02:48.222Z,30.90
2022-08-28T20:05:15.691Z,30.90
2022-08-28T20:07:43.210Z,30.90
2022-08-28T20:10:14.219Z,30.80
2022-08-28T20:12:48.129Z,30.80
2022-08-28T20:15:19.097Z,30.80
2022-08-28T20:17:49.905Z,30.70
2022-08-28T20:20:21.292Z,30.70
2022-08-28T20:22:54.112Z,30.70
2022-08-28T20:25:21.868Z,30.60
2022-08-28T20:27:49.384Z,30.60
2022-08-28T20:30:17.582Z,30.60
2022-08-28T20:32:44.737Z,30.60
2022-08-28T20:35:12.847Z,30.50
2022-08-28T20:37:44.708Z,30.50
2022-08-28T20:40:19.276Z,30.50
2022-08-28T20:42:46.579Z,30.50
2022-08-28T20:45:16.237Z,30.40
2022-08-28T20:47:43.940Z,30.40
2022-08-28T20:50:11.508Z,30.30
2022-08-28T20:52:39.355Z,30.30
2022-08-28T20:55:08.470Z,30.30
2022-08-28T20:57:36.423Z,30.30
2022-08-28T21:00:11.433Z,30.30
2022-08-28T21:02:38.477Z,30.30
2022-08-28T21:05:06.164Z,30.30
2022-08-28T21:07:35.174Z,30.20
2022-08-28T21:10:05.109Z,30.20
2022-08-28T21:12:34.604Z,30.20
2022-08-28T21:15:01.756Z,30.20
2022-08-28T21:17:30.340Z,30.20
2022-08-28T21:20:05.580Z,30.20
2022-08-28T21:22:35.344Z,30.10
2022-08-28T21:25:06.112Z,30.10
2022-08-28T21:27:33.206Z,30.10
2022-08-28T21:30:01.062Z,30.10
2022-08-28T21:32:30.316Z,30.10
2022-08-28T21:34:57.416Z,30.10
2022-08-28T21:37:24.640Z,30.10
2022-08-28T21:39:52.322Z,30.10
2022-08-28T21:42:24.189Z,30.10
2022-08-28T21:44:52.260Z,30.10
2022-08-28T21:47:22.980Z,30.00
2022-08-28T21:49:54.808Z,30.00
2022-08-28T21:52:25.164Z,30.00
2022-08-28T21:54:58.115Z,30.00
2022-08-28T21:57:25.303Z,30.00
2022-08-28T21:59:52.305Z,30.00
2022-08-28T22:02:19.585Z,29.90
2022-08-28T22:04:46.975Z,29.90
2022-08-28T22:07:14.231Z,29.90
2022-08-28T22:09:42.123Z,29.90
2022-08-28T22:12:09.443Z,29.90
2022-08-28T22:14:37.340Z,29.90
2022-08-28T22:17:11.206Z,29.90
2022-08-28T22:19:39.369Z,29.80
2022-08-28T22:22:25.738Z,29.80
2022-08-28T22:24:52.967Z,29.80
2022-08-28T22:27:20.076Z,29.70
2022-08-28T22:29:47.164Z,29.70
2022-08-28T22:32:15.244Z,29.70
2022-08-28T22:34:45.168Z,29.70
2022-08-28T22:37:13.675Z,29.60
2022-08-28T22:39:42.461Z,29.60
2022-08-28T22:42:10.104Z,29.60
2022-08-28T22:44:38.402Z,29.60
2022-08-28T22:47:06.275Z,29.60
2022-08-28T22:49:33.716Z,29.60
2022-08-28T22:52:03.430Z,29.50
2022-08-28T22:54:32.551Z,29.50
2022-08-28T22:56:59.604Z,29.50
2022-08-28T22:59:28.044Z,29.50
2022-08-28T23:01:55.170Z,29.50
2022-08-28T23:04:22.328Z,29.50
2022-08-28T23:06:49.849Z,29.50
2022-08-28T23:09:16.893Z,29.50
2022-08-28T23:11:43.979Z,29.40
2022-08-28T23:14:11.072Z,29.40
2022-08-28T23:16:38.309Z,29.50
2022-08-28T23:19:09.085Z,29.50
2022-08-28T23:21:39.239Z,29.40
2022-08-28T23:24:10.632Z,29.40
2022-08-28T23:26:37.737Z,29.40
2022-08-28T23:29:05.185Z,29.40
2022-08-28T23:31:32.343Z,29.40
2022-08-28T23:33:59.927Z,29.40
2022-08-28T23:36:27.267Z,29.30
2022-08-28T23:38:54.455Z,29.30
2022-08-28T23:41:21.687Z,29.30
2022-08-28T23:43:49.263Z,29.30
2022-08-28T23:46:17.921Z,29.20
2022-08-28T23:48:46.187Z,29.20
2022-08-28T23:51:17.072Z,29.10
2022-08-28T23:53:45.025Z,29.20
2022-08-28T23:56:12.975Z,29.10
2022-08-28T23:58:43.131Z,29.10
